Villa Ascasubi, Argentina
Current Conditions -  °F | °C
As of 4:00 AM on Sunday 21 Dec 2014 (Local Time) from SACO Reporting Station
Broken Clouds Broken Clouds  
Wind Chill: 57°   Ceiling: 10000
Heat Index: 57°   Visibility: 6mi
Dew Point: 41°   Wind: 7mph
Humidity: 55%   Direction: 230°SW
Pressure: 29.91"   Gusts: NA
Location:  32.17°S, 63.89°W
Report Text: SACO 210700Z 23006KT 9999 SCT030 BKN10014/05 Q1013
Loading
Personal Weather Stations






























Interactive Weather Map New forecast layout! Learn more

10-Day Weather Forecast

Advertisements
Track Severe Weather on mobile